sensor_id;sensor_type;location;lat;lon;timestamp;pressure;altitude;pressure_sealevel;temperature;humidity
17781;BME280;8498;52.516;13.790;2023-06-10T00:01:40;101070.19;;;18.64;77.36
17781;BME280;8498;52.516;13.790;2023-06-10T00:07:04;101073.47;;;18.58;78.21
17781;BME280;8498;52.516;13.790;2023-06-10T00:12:30;101067.78;;;18.51;78.01
17781;BME280;8498;52.516;13.790;2023-06-10T00:17:53;101065.53;;;18.47;78.27
17781;BME280;8498;52.516;13.790;2023-06-10T00:23:17;101067.41;;;18.37;78.58
17781;BME280;8498;52.516;13.790;2023-06-10T00:28:39;101064.16;;;18.23;79.21
17781;BME280;8498;52.516;13.790;2023-06-10T00:34:02;101061.22;;;18.17;79.63
17781;BME280;8498;52.516;13.790;2023-06-10T00:39:26;101060.78;;;18.12;79.83
17781;BME280;8498;52.516;13.790;2023-06-10T00:44:49;101059.69;;;17.95;80.48
17781;BME280;8498;52.516;13.790;2023-06-10T00:50:11;101065.63;;;17.89;80.70
17781;BME280;8498;52.516;13.790;2023-06-10T00:55:34;101074.41;;;17.81;80.73
17781;BME280;8498;52.516;13.790;2023-06-10T01:00:57;101072.41;;;17.64;81.69
17781;BME280;8498;52.516;13.790;2023-06-10T01:07:05;101085.00;;;17.64;81.62
17781;BME280;8498;52.516;13.790;2023-06-10T01:12:43;101084.25;;;17.52;82.50
17781;BME280;8498;52.516;13.790;2023-06-10T01:18:11;101092.16;;;17.44;82.68
17781;BME280;8498;52.516;13.790;2023-06-10T01:23:39;101078.25;;;17.29;83.53
17781;BME280;8498;52.516;13.790;2023-06-10T01:29:17;101087.88;;;17.22;83.46
17781;BME280;8498;52.516;13.790;2023-06-10T01:34:42;101082.31;;;17.14;83.79
17781;BME280;8498;52.516;13.790;2023-06-10T01:40:06;101082.16;;;17.06;84.40
17781;BME280;8498;52.516;13.790;2023-06-10T01:45:30;101085.56;;;17.08;84.17
17781;BME280;8498;52.516;13.790;2023-06-10T01:50:55;101083.56;;;17.00;84.06
17781;BME280;8498;52.516;13.790;2023-06-10T01:56:18;101099.06;;;16.97;83.91
17781;BME280;8498;52.516;13.790;2023-06-10T02:01:42;101086.47;;;16.87;84.05
17781;BME280;8498;52.516;13.790;2023-06-10T02:07:05;101090.13;;;16.86;84.27
17781;BME280;8498;52.516;13.790;2023-06-10T02:12:27;101089.63;;;16.72;85.19
17781;BME280;8498;52.516;13.790;2023-06-10T02:17:51;101097.25;;;16.67;85.70
17781;BME280;8498;52.516;13.790;2023-06-10T02:23:14;101091.53;;;16.60;85.75
17781;BME280;8498;52.516;13.790;2023-06-10T02:28:37;101100.94;;;16.55;85.41
17781;BME280;8498;52.516;13.790;2023-06-10T02:33:59;101104.44;;;16.45;86.13
17781;BME280;8498;52.516;13.790;2023-06-10T02:39:22;101102.59;;;16.46;86.13
17781;BME280;8498;52.516;13.790;2023-06-10T02:44:45;101106.00;;;16.48;86.17
17781;BME280;8498;52.516;13.790;2023-06-10T02:50:14;101095.16;;;16.49;86.41
17781;BME280;8498;52.516;13.790;2023-06-10T02:56:01;101092.06;;;16.54;86.73
17781;BME280;8498;52.516;13.790;2023-06-10T03:01:24;101104.75;;;16.52;87.09
17781;BME280;8498;52.516;13.790;2023-06-10T03:06:54;101106.84;;;16.48;87.74
17781;BME280;8498;52.516;13.790;2023-06-10T03:12:23;101112.78;;;16.52;87.09
17781;BME280;8498;52.516;13.790;2023-06-10T03:17:46;101107.25;;;16.44;88.02
17781;BME280;8498;52.516;13.790;2023-06-10T03:23:09;101106.44;;;16.53;87.72
17781;BME280;8498;52.516;13.790;2023-06-10T03:28:32;101104.47;;;16.55;87.17
17781;BME280;8498;52.516;13.790;2023-06-10T03:33:55;101108.16;;;16.54;87.64
17781;BME280;8498;52.516;13.790;2023-06-10T03:39:20;101113.72;;;16.62;87.11
17781;BME280;8498;52.516;13.790;2023-06-10T03:44:43;101122.22;;;16.67;88.05
17781;BME280;8498;52.516;13.790;2023-06-10T03:50:06;101114.97;;;16.79;87.82
17781;BME280;8498;52.516;13.790;2023-06-10T03:55:29;101113.59;;;16.94;87.74
17781;BME280;8498;52.516;13.790;2023-06-10T04:00:55;101118.31;;;17.02;87.75
17781;BME280;8498;52.516;13.790;2023-06-10T04:06:25;101129.94;;;17.12;87.91
17781;BME280;8498;52.516;13.790;2023-06-10T04:11:49;101124.75;;;17.30;87.45
17781;BME280;8498;52.516;13.790;2023-06-10T04:17:11;101124.94;;;17.47;87.58
17781;BME280;8498;52.516;13.790;2023-06-10T04:22:34;101143.81;;;17.67;86.27
17781;BME280;8498;52.516;13.790;2023-06-10T04:27:56;101136.63;;;17.86;85.58
17781;BME280;8498;52.516;13.790;2023-06-10T04:33:20;101142.31;;;17.93;85.94
17781;BME280;8498;52.516;13.790;2023-06-10T04:38:43;101144.28;;;18.10;85.27
17781;BME280;8498;52.516;13.790;2023-06-10T04:44:05;101143.88;;;18.24;85.40
17781;BME280;8498;52.516;13.790;2023-06-10T04:49:28;101139.00;;;18.38;84.91
17781;BME280;8498;52.516;13.790;2023-06-10T04:54:52;101147.97;;;18.57;83.61
17781;BME280;8498;52.516;13.790;2023-06-10T05:00:14;101153.84;;;18.80;81.45
17781;BME280;8498;52.516;13.790;2023-06-10T05:05:37;101155.34;;;18.92;80.46
17781;BME280;8498;52.516;13.790;2023-06-10T05:11:00;101143.41;;;19.04;80.04
17781;BME280;8498;52.516;13.790;2023-06-10T05:16:23;101157.97;;;19.12;79.73
17781;BME280;8498;52.516;13.790;2023-06-10T05:21:46;101164.88;;;19.24;78.97
17781;BME280;8498;52.516;13.790;2023-06-10T05:27:08;101167.09;;;19.38;77.82
17781;BME280;8498;52.516;13.790;2023-06-10T05:32:30;101164.59;;;19.54;76.99
17781;BME280;8498;52.516;13.790;2023-06-10T05:37:53;101165.50;;;19.72;76.05
17781;BME280;8498;52.516;13.790;2023-06-10T05:43:15;101167.75;;;19.95;75.22
17781;BME280;8498;52.516;13.790;2023-06-10T05:48:38;101177.47;;;20.05;74.00
17781;BME280;8498;52.516;13.790;2023-06-10T05:54:01;101167.34;;;20.25;73.88
17781;BME280;8498;52.516;13.790;2023-06-10T05:59:23;101170.25;;;20.41;72.89
17781;BME280;8498;52.516;13.790;2023-06-10T06:04:46;101171.25;;;20.66;72.58
17781;BME280;8498;52.516;13.790;2023-06-10T06:10:09;101180.50;;;20.81;71.51
17781;BME280;8498;52.516;13.790;2023-06-10T06:15:31;101180.81;;;21.04;70.87
17781;BME280;8498;52.516;13.790;2023-06-10T06:20:54;101178.91;;;21.22;69.75
17781;BME280;8498;52.516;13.790;2023-06-10T06:26:17;101190.44;;;21.33;69.85
17781;BME280;8498;52.516;13.790;2023-06-10T06:31:40;101190.69;;;21.47;68.66
17781;BME280;8498;52.516;13.790;2023-06-10T06:37:02;101200.31;;;21.50;68.30
17781;BME280;8498;52.516;13.790;2023-06-10T06:42:27;101204.41;;;21.62;69.24
17781;BME280;8498;52.516;13.790;2023-06-10T06:47:58;101210.91;;;21.69;68.50
17781;BME280;8498;52.516;13.790;2023-06-10T06:53:21;101213.63;;;21.77;68.26
17781;BME280;8498;52.516;13.790;2023-06-10T06:58:44;101217.16;;;21.70;66.94
17781;BME280;8498;52.516;13.790;2023-06-10T07:04:06;101228.16;;;21.84;66.92
17781;BME280;8498;52.516;13.790;2023-06-10T07:09:29;101230.28;;;22.07;66.80
17781;BME280;8498;52.516;13.790;2023-06-10T07:14:51;101231.00;;;22.17;66.73
17781;BME280;8498;52.516;13.790;2023-06-10T07:20:14;101233.06;;;22.31;66.29
17781;BME280;8498;52.516;13.790;2023-06-10T07:25:37;101231.03;;;22.49;67.57
17781;BME280;8498;52.516;13.790;2023-06-10T07:30:59;101243.75;;;22.73;64.74
17781;BME280;8498;52.516;13.790;2023-06-10T07:36:22;101247.47;;;22.88;65.17
17781;BME280;8498;52.516;13.790;2023-06-10T07:41:44;101246.78;;;23.02;63.95
17781;BME280;8498;52.516;13.790;2023-06-10T07:47:06;101242.84;;;23.29;62.91
17781;BME280;8498;52.516;13.790;2023-06-10T07:52:29;101241.41;;;23.66;63.84
17781;BME280;8498;52.516;13.790;2023-06-10T07:57:52;101248.81;;;23.72;61.19
17781;BME280;8498;52.516;13.790;2023-06-10T08:03:15;101248.75;;;23.88;60.90
17781;BME280;8498;52.516;13.790;2023-06-10T08:08:38;101246.91;;;24.11;59.74
17781;BME280;8498;52.516;13.790;2023-06-10T08:14:05;101239.78;;;24.19;59.29
17781;BME280;8498;52.516;13.790;2023-06-10T08:19:28;101238.59;;;24.44;59.06
17781;BME280;8498;52.516;13.790;2023-06-10T08:24:50;101246.13;;;24.79;57.06
17781;BME280;8498;52.516;13.790;2023-06-10T08:30:13;101243.19;;;25.04;55.92
17781;BME280;8498;52.516;13.790;2023-06-10T08:35:36;101252.53;;;25.39;52.67
17781;BME280;8498;52.516;13.790;2023-06-10T08:40:59;101246.78;;;25.78;51.67
17781;BME280;8498;52.516;13.790;2023-06-10T08:46:24;101253.13;;;26.14;50.17
17781;BME280;8498;52.516;13.790;2023-06-10T08:51:50;101254.34;;;26.12;48.76
17781;BME280;8498;52.516;13.790;2023-06-10T08:57:13;101250.28;;;26.22;47.91
17781;BME280;8498;52.516;13.790;2023-06-10T09:02:36;101267.28;;;26.24;46.80
17781;BME280;8498;52.516;13.790;2023-06-10T09:08:00;101258.75;;;26.49;48.09
17781;BME280;8498;52.516;13.790;2023-06-10T09:13:23;101258.81;;;26.55;47.48
17781;BME280;8498;52.516;13.790;2023-06-10T09:18:45;101264.19;;;26.70;47.50
17781;BME280;8498;52.516;13.790;2023-06-10T09:24:08;101254.44;;;26.82;46.46
17781;BME280;8498;52.516;13.790;2023-06-10T09:29:31;101259.03;;;27.31;46.30
17781;BME280;8498;52.516;13.790;2023-06-10T09:34:53;101247.06;;;28.01;44.38
17781;BME280;8498;52.516;13.790;2023-06-10T09:40:16;101252.22;;;28.37;43.75
17781;BME280;8498;52.516;13.790;2023-06-10T09:45:38;101254.34;;;28.61;40.93
17781;BME280;8498;52.516;13.790;2023-06-10T09:51:05;101259.00;;;28.87;41.11
17781;BME280;8498;52.516;13.790;2023-06-10T09:56:37;101261.03;;;28.32;43.48
17781;BME280;8498;52.516;13.790;2023-06-10T10:02:03;101254.34;;;27.94;44.20
17781;BME280;8498;52.516;13.790;2023-06-10T10:07:29;101265.84;;;27.76;44.58
17781;BME280;8498;52.516;13.790;2023-06-10T10:12:54;101263.66;;;28.06;43.07
17781;BME280;8498;52.516;13.790;2023-06-10T10:18:21;101274.59;;;28.80;42.24
17781;BME280;8498;52.516;13.790;2023-06-10T10:24:02;101266.16;;;29.34;40.71
17781;BME280;8498;52.516;13.790;2023-06-10T10:29:31;101257.91;;;29.54;38.24
17781;BME280;8498;52.516;13.790;2023-06-10T10:40:22;101256.00;;;29.61;36.42
17781;BME280;8498;52.516;13.790;2023-06-10T10:45:46;101253.72;;;29.58;37.58
17781;BME280;8498;52.516;13.790;2023-06-10T10:51:20;101256.34;;;29.84;36.35
17781;BME280;8498;52.516;13.790;2023-06-10T10:57:21;101249.13;;;30.03;36.30
17781;BME280;8498;52.516;13.790;2023-06-10T11:02:45;101249.56;;;30.00;37.97
17781;BME280;8498;52.516;13.790;2023-06-10T11:08:10;101253.34;;;29.92;37.69
17781;BME280;8498;52.516;13.790;2023-06-10T11:13:33;101248.53;;;29.81;38.13
17781;BME280;8498;52.516;13.790;2023-06-10T11:18:56;101238.59;;;30.00;39.19
17781;BME280;8498;52.516;13.790;2023-06-10T11:24:18;101244.78;;;30.27;39.20
17781;BME280;8498;52.516;13.790;2023-06-10T11:35:23;101222.81;;;30.90;38.27
17781;BME280;8498;52.516;13.790;2023-06-10T11:40:48;101228.84;;;31.23;38.13
17781;BME280;8498;52.516;13.790;2023-06-10T11:46:15;101216.09;;;31.29;36.46
17781;BME280;8498;52.516;13.790;2023-06-10T11:51:39;101224.97;;;31.06;37.50
17781;BME280;8498;52.516;13.790;2023-06-10T11:57:02;101208.88;;;31.34;37.63
17781;BME280;8498;52.516;13.790;2023-06-10T12:02:30;101209.84;;;31.95;36.36
17781;BME280;8498;52.516;13.790;2023-06-10T12:08:11;101210.56;;;31.54;36.99
17781;BME280;8498;52.516;13.790;2023-06-10T12:13:34;101204.44;;;31.52;37.80
17781;BME280;8498;52.516;13.790;2023-06-10T12:19:04;101192.22;;;31.48;38.09
17781;BME280;8498;52.516;13.790;2023-06-10T12:24:27;101194.41;;;31.64;37.11
17781;BME280;8498;52.516;13.790;2023-06-10T12:29:53;101188.72;;;31.59;36.37
17781;BME280;8498;52.516;13.790;2023-06-10T12:35:26;101186.44;;;30.94;37.68
17781;BME280;8498;52.516;13.790;2023-06-10T12:40:50;101180.34;;;31.17;36.66
17781;BME280;8498;52.516;13.790;2023-06-10T12:46:13;101182.03;;;32.03;35.19
17781;BME280;8498;52.516;13.790;2023-06-10T12:51:35;101171.50;;;32.41;35.19
17781;BME280;8498;52.516;13.790;2023-06-10T12:56:59;101164.34;;;32.10;34.67
17781;BME280;8498;52.516;13.790;2023-06-10T13:02:22;101171.44;;;31.22;34.37
17781;BME280;8498;52.516;13.790;2023-06-10T13:07:47;101173.00;;;30.37;34.49
17781;BME280;8498;52.516;13.790;2023-06-10T13:13:09;101159.81;;;29.89;34.47
17781;BME280;8498;52.516;13.790;2023-06-10T13:18:32;101155.38;;;31.00;33.35
17781;BME280;8498;52.516;13.790;2023-06-10T13:23:59;101148.38;;;31.89;32.99
17781;BME280;8498;52.516;13.790;2023-06-10T13:29:22;101160.88;;;31.19;34.09
17781;BME280;8498;52.516;13.790;2023-06-10T13:34:44;101144.63;;;31.72;33.44
17781;BME280;8498;52.516;13.790;2023-06-10T13:40:07;101140.00;;;32.14;32.01
17781;BME280;8498;52.516;13.790;2023-06-10T13:45:31;101135.03;;;31.45;33.20
17781;BME280;8498;52.516;13.790;2023-06-10T13:50:53;101140.31;;;31.10;32.78
17781;BME280;8498;52.516;13.790;2023-06-10T13:56:16;101135.97;;;30.77;34.70
17781;BME280;8498;52.516;13.790;2023-06-10T14:01:38;101140.72;;;31.07;33.96
17781;BME280;8498;52.516;13.790;2023-06-10T14:07:02;101138.34;;;30.42;34.56
17781;BME280;8498;52.516;13.790;2023-06-10T14:12:25;101146.38;;;30.19;36.89
17781;BME280;8498;52.516;13.790;2023-06-10T14:17:47;101142.50;;;30.26;38.09
17781;BME280;8498;52.516;13.790;2023-06-10T14:23:10;101133.34;;;31.25;33.41
17781;BME280;8498;52.516;13.790;2023-06-10T14:28:32;101133.19;;;31.75;32.16
17781;BME280;8498;52.516;13.790;2023-06-10T14:33:55;101127.19;;;31.78;31.78
17781;BME280;8498;52.516;13.790;2023-06-10T15:08:44;101126.00;;;31.74;28.49
17781;BME280;8498;52.516;13.790;2023-06-10T15:14:08;101132.44;;;31.50;27.37
17781;BME280;8498;52.516;13.790;2023-06-10T15:19:30;101119.19;;;31.10;28.67
17781;BME280;8498;52.516;13.790;2023-06-10T15:24:53;101117.00;;;31.49;27.58
17781;BME280;8498;52.516;13.790;2023-06-10T15:30:16;101125.28;;;31.79;27.45
17781;BME280;8498;52.516;13.790;2023-06-10T15:35:38;101122.41;;;32.03;27.38
17781;BME280;8498;52.516;13.790;2023-06-10T15:41:01;101127.63;;;31.93;26.77
17781;BME280;8498;52.516;13.790;2023-06-10T15:46:24;101132.88;;;31.95;27.17
17781;BME280;8498;52.516;13.790;2023-06-10T15:51:46;101127.09;;;31.55;26.18
17781;BME280;8498;52.516;13.790;2023-06-10T15:57:12;101125.84;;;31.69;26.96
17781;BME280;8498;52.516;13.790;2023-06-10T16:02:36;101143.13;;;31.88;26.74
17781;BME280;8498;52.516;13.790;2023-06-10T16:07:58;101126.69;;;31.69;26.20
17781;BME280;8498;52.516;13.790;2023-06-10T16:13:24;101136.53;;;31.59;26.19
17781;BME280;8498;52.516;13.790;2023-06-10T16:18:46;101131.59;;;33.21;27.24
17781;BME280;8498;52.516;13.790;2023-06-10T16:24:09;101139.22;;;35.16;24.86
17781;BME280;8498;52.516;13.790;2023-06-10T16:29:33;101147.66;;;34.54;23.28
17781;BME280;8498;52.516;13.790;2023-06-10T16:34:56;101147.25;;;34.00;23.81
17781;BME280;8498;52.516;13.790;2023-06-10T16:40:18;101142.91;;;32.31;25.03
17781;BME280;8498;52.516;13.790;2023-06-10T16:45:41;101142.78;;;31.84;26.03
17781;BME280;8498;52.516;13.790;2023-06-10T16:51:04;101138.47;;;31.40;26.72
17781;BME280;8498;52.516;13.790;2023-06-10T16:56:27;101146.19;;;31.13;28.10
17781;BME280;8498;52.516;13.790;2023-06-10T17:01:50;101145.47;;;30.75;28.04
17781;BME280;8498;52.516;13.790;2023-06-10T17:07:12;101143.75;;;29.92;28.26
17781;BME280;8498;52.516;13.790;2023-06-10T17:12:35;101148.16;;;29.62;29.04
17781;BME280;8498;52.516;13.790;2023-06-10T17:17:58;101147.41;;;29.29;30.99
17781;BME280;8498;52.516;13.790;2023-06-10T17:23:20;101146.25;;;28.92;31.45
17781;BME280;8498;52.516;13.790;2023-06-10T17:28:42;101154.25;;;28.67;33.50
17781;BME280;8498;52.516;13.790;2023-06-10T17:34:05;101152.16;;;28.29;34.55
17781;BME280;8498;52.516;13.790;2023-06-10T17:39:27;101149.56;;;28.08;36.28
17781;BME280;8498;52.516;13.790;2023-06-10T17:44:50;101156.69;;;27.89;37.15
17781;BME280;8498;52.516;13.790;2023-06-10T17:50:12;101164.63;;;27.77;37.75
17781;BME280;8498;52.516;13.790;2023-06-10T17:55:37;101175.47;;;27.64;36.91
17781;BME280;8498;52.516;13.790;2023-06-10T18:01:00;101172.25;;;27.48;36.82
17781;BME280;8498;52.516;13.790;2023-06-10T18:06:23;101176.59;;;27.42;36.75
17781;BME280;8498;52.516;13.790;2023-06-10T18:11:45;101186.25;;;27.38;36.38
17781;BME280;8498;52.516;13.790;2023-06-10T18:17:07;101187.06;;;27.32;36.38
17781;BME280;8498;52.516;13.790;2023-06-10T18:22:30;101191.41;;;27.20;36.82
17781;BME280;8498;52.516;13.790;2023-06-10T18:27:52;101190.50;;;27.13;36.39
17781;BME280;8498;52.516;13.790;2023-06-10T18:33:15;101196.97;;;27.05;37.25
17781;BME280;8498;52.516;13.790;2023-06-10T18:38:37;101206.91;;;26.91;37.42
17781;BME280;8498;52.516;13.790;2023-06-10T18:44:00;101210.81;;;26.82;37.66
17781;BME280;8498;52.516;13.790;2023-06-10T18:49:22;101214.50;;;26.68;38.34
17781;BME280;8498;52.516;13.790;2023-06-10T18:54:45;101220.47;;;26.57;39.60
17781;BME280;8498;52.516;13.790;2023-06-10T19:00:08;101220.34;;;26.44;39.37
17781;BME280;8498;52.516;13.790;2023-06-10T19:05:31;101235.81;;;26.37;39.82
17781;BME280;8498;52.516;13.790;2023-06-10T19:10:54;101232.53;;;26.26;39.14
17781;BME280;8498;52.516;13.790;2023-06-10T19:16:16;101237.03;;;26.19;39.40
17781;BME280;8498;52.516;13.790;2023-06-10T19:21:39;101255.69;;;26.01;39.72
17781;BME280;8498;52.516;13.790;2023-06-10T19:27:01;101259.38;;;25.79;40.42
17781;BME280;8498;52.516;13.790;2023-06-10T19:32:24;101267.09;;;25.61;40.60
17781;BME280;8498;52.516;13.790;2023-06-10T19:37:47;101279.81;;;25.45;40.64
17781;BME280;8498;52.516;13.790;2023-06-10T19:43:09;101266.09;;;25.24;41.73
17781;BME280;8498;52.516;13.790;2023-06-10T19:48:32;101283.78;;;24.82;43.58
17781;BME280;8498;52.516;13.790;2023-06-10T19:53:54;101289.50;;;24.50;44.93
17781;BME280;8498;52.516;13.790;2023-06-10T19:59:17;101295.56;;;24.29;44.98
17781;BME280;8498;52.516;13.790;2023-06-10T20:04:39;101297.78;;;24.26;44.57
17781;BME280;8498;52.516;13.790;2023-06-10T20:10:02;101303.41;;;24.16;45.98
17781;BME280;8498;52.516;13.790;2023-06-10T20:15:25;101325.41;;;23.90;44.44
17781;BME280;8498;52.516;13.790;2023-06-10T20:20:47;101329.63;;;23.93;44.72
17781;BME280;8498;52.516;13.790;2023-06-10T20:26:10;101340.50;;;23.93;43.33
17781;BME280;8498;52.516;13.790;2023-06-10T20:31:32;101346.25;;;23.90;42.99
17781;BME280;8498;52.516;13.790;2023-06-10T20:36:55;101339.34;;;23.79;41.99
17781;BME280;8498;52.516;13.790;2023-06-10T20:42:18;101347.50;;;23.71;41.45
17781;BME280;8498;52.516;13.790;2023-06-10T20:47:42;101361.09;;;23.63;40.60
17781;BME280;8498;52.516;13.790;2023-06-10T20:53:05;101364.84;;;23.54;40.20
17781;BME280;8498;52.516;13.790;2023-06-10T20:58:27;101366.34;;;23.40;40.37
17781;BME280;8498;52.516;13.790;2023-06-10T21:03:51;101360.44;;;23.28;39.74
17781;BME280;8498;52.516;13.790;2023-06-10T21:09:14;101371.63;;;23.17;39.78
17781;BME280;8498;52.516;13.790;2023-06-10T21:14:36;101377.03;;;23.01;39.25
17781;BME280;8498;52.516;13.790;2023-06-10T21:19:59;101386.88;;;22.94;38.46
17781;BME280;8498;52.516;13.790;2023-06-10T21:25:21;101386.50;;;22.89;37.95
17781;BME280;8498;52.516;13.790;2023-06-10T21:30:43;101396.66;;;22.79;37.62
17781;BME280;8498;52.516;13.790;2023-06-10T21:36:06;101398.94;;;22.65;37.29
17781;BME280;8498;52.516;13.790;2023-06-10T21:41:29;101399.44;;;22.53;37.74
17781;BME280;8498;52.516;13.790;2023-06-10T21:46:51;101408.72;;;22.42;37.33
17781;BME280;8498;52.516;13.790;2023-06-10T21:52:14;101412.03;;;22.28;37.03
17781;BME280;8498;52.516;13.790;2023-06-10T21:57:36;101419.78;;;22.23;37.05
17781;BME280;8498;52.516;13.790;2023-06-10T22:02:59;101418.59;;;22.17;36.65
17781;BME280;8498;52.516;13.790;2023-06-10T22:08:22;101425.44;;;22.04;36.52
17781;BME280;8498;52.516;13.790;2023-06-10T22:13:44;101428.06;;;21.95;37.25
17781;BME280;8498;52.516;13.790;2023-06-10T22:19:07;101426.78;;;21.82;37.60
17781;BME280;8498;52.516;13.790;2023-06-10T22:24:29;101420.66;;;21.72;37.88
17781;BME280;8498;52.516;13.790;2023-06-10T22:29:52;101424.44;;;21.61;37.99
17781;BME280;8498;52.516;13.790;2023-06-10T22:35:15;101418.84;;;21.54;38.11
17781;BME280;8498;52.516;13.790;2023-06-10T22:40:38;101426.03;;;21.46;38.35
17781;BME280;8498;52.516;13.790;2023-06-10T22:46:00;101422.25;;;21.39;38.93
17781;BME280;8498;52.516;13.790;2023-06-10T22:51:23;101415.94;;;21.30;39.37
17781;BME280;8498;52.516;13.790;2023-06-10T22:56:45;101411.16;;;21.24;39.76
17781;BME280;8498;52.516;13.790;2023-06-10T23:02:07;101417.56;;;21.05;40.33
17781;BME280;8498;52.516;13.790;2023-06-10T23:07:31;101415.59;;;20.98;40.76
17781;BME280;8498;52.516;13.790;2023-06-10T23:12:54;101416.00;;;20.85;41.36
17781;BME280;8498;52.516;13.790;2023-06-10T23:18:16;101408.13;;;20.74;41.41
17781;BME280;8498;52.516;13.790;2023-06-10T23:23:39;101414.97;;;20.68;41.59
17781;BME280;8498;52.516;13.790;2023-06-10T23:29:03;101418.00;;;20.65;42.48
17781;BME280;8498;52.516;13.790;2023-06-10T23:34:25;101425.44;;;20.54;42.62
17781;BME280;8498;52.516;13.790;2023-06-10T23:39:47;101423.66;;;20.44;43.03
17781;BME280;8498;52.516;13.790;2023-06-10T23:45:10;101430.22;;;20.32;43.53
17781;BME280;8498;52.516;13.790;2023-06-10T23:50:34;101431.63;;;20.27;44.08
17781;BME280;8498;52.516;13.790;2023-06-10T23:55:59;101442.09;;;20.12;44.39
